Time;durP1;ratioP1;P1;durP2;ratioP2;P2;SDS_P1;SDS_P2;PMS_P1;PMS_P2;Temp;Humidity;BMP_temperature;BMP_pressure;BME280_temperature;BME280_humidity;BME280_pressure;Samples;Min_cycle;Max_cycle;Signal;HPM_P1;HPM_P2
2022/05/08 00:02:19;;;;;;;19.33;8.63;;;;;;;21.02;55.86;100747.00;5019812;28;20108;-53
2022/05/08 00:04:49;;;;;;;15.10;8.23;;;;;;;21.02;55.56;100747.00;5018102;28;20041;-51
2022/05/08 00:07:16;;;;;;;17.27;9.30;;;;;;;21.03;55.45;100746.00;5023269;28;20045;-52
2022/05/08 00:09:42;;;;;;;14.85;8.30;;;;;;;21.02;55.65;100743.56;5023589;28;20041;-51
2022/05/08 00:12:11;;;;;;;14.32;7.65;;;;;;;21.02;55.69;100736.41;5039613;28;20089;-51
2022/05/08 00:14:39;;;;;;;16.15;7.82;;;;;;;21.03;55.50;100735.41;5061933;28;20028;-51
2022/05/08 00:17:05;;;;;;;14.88;7.68;;;;;;;21.01;55.68;100732.16;5061619;28;20546;-50
2022/05/08 00:19:31;;;;;;;19.73;9.23;;;;;;;21.01;55.63;100732.16;5057063;28;20028;-52
2022/05/08 00:21:56;;;;;;;12.93;8.40;;;;;;;20.99;55.34;100722.78;5064253;28;20036;-47
2022/05/08 00:24:22;;;;;;;14.73;7.82;;;;;;;20.99;55.54;100722.78;5060296;28;20041;-50
2022/05/08 00:26:47;;;;;;;12.20;7.55;;;;;;;20.98;55.24;100724.59;5060615;28;20051;-50
2022/05/08 00:29:15;;;;;;;12.40;7.65;;;;;;;20.98;55.42;100718.50;5062213;28;20112;-52
2022/05/08 00:31:41;;;;;;;15.18;7.07;;;;;;;20.98;55.28;100726.44;5068219;28;20507;-52
2022/05/08 00:34:07;;;;;;;12.82;6.63;;;;;;;20.97;55.49;100727.47;5061087;28;20480;-51
2022/05/08 00:36:32;;;;;;;14.73;7.50;;;;;;;20.96;55.55;100723.19;5064514;28;20082;-53
2022/05/08 00:38:58;;;;;;;11.35;7.07;;;;;;;20.95;55.29;100722.38;5066817;28;20386;-48
2022/05/08 00:41:23;;;;;;;14.80;6.50;;;;;;;20.95;55.11;100726.84;5064654;28;20066;-53
2022/05/08 00:43:48;;;;;;;13.25;7.18;;;;;;;20.95;55.29;100732.97;5066796;28;20071;-49
2022/05/08 00:46:16;;;;;;;11.52;6.57;;;;;;;20.94;55.53;100733.97;5066772;28;20262;-52
2022/05/08 00:48:42;;;;;;;13.18;7.30;;;;;;;20.94;55.26;100733.97;5065766;28;20044;-53
2022/05/08 00:51:10;;;;;;;12.75;6.93;;;;;;;20.94;55.50;100741.13;5065859;28;20032;-52
2022/05/08 00:53:43;;;;;;;10.77;7.20;;;;;;;20.93;55.52;100734.19;5063871;28;20060;-50
2022/05/08 00:56:11;;;;;;;12.48;6.90;;;;;;;20.92;55.43;100738.66;5066775;28;20460;-54
2022/05/08 00:58:39;;;;;;;13.43;7.30;;;;;;;20.92;55.72;100737.84;5065914;28;20097;-54
2022/05/08 01:01:05;;;;;;;10.48;6.30;;;;;;;20.93;55.56;100742.13;5061439;28;20376;-52
2022/05/08 01:03:31;;;;;;;10.60;5.88;;;;;;;20.93;55.70;100731.53;5067616;28;20431;-52
2022/05/08 01:06:05;;;;;;;12.23;7.60;;;;;;;20.93;55.27;100728.88;5061237;28;20029;-54
2022/05/08 01:08:32;;;;;;;10.25;6.28;;;;;;;20.93;55.34;100732.34;5063388;28;20029;-52
2022/05/08 01:11:01;;;;;;;9.82;5.78;;;;;;;20.95;55.32;100737.44;5066826;28;20139;-54
2022/05/08 01:13:26;;;;;;;9.73;5.20;;;;;;;20.96;55.49;100744.38;5062479;28;20448;-51
2022/05/08 01:15:54;;;;;;;12.32;5.93;;;;;;;20.96;55.56;100739.06;5063351;28;20086;-51
2022/05/08 01:18:23;;;;;;;8.30;5.53;;;;;;;20.97;55.14;100740.72;5065692;28;20508;-54
2022/05/08 01:20:49;;;;;;;10.88;5.75;;;;;;;20.98;55.43;100744.97;5066684;28;20029;-47
2022/05/08 01:23:15;;;;;;;11.38;6.93;;;;;;;20.97;55.24;100733.56;5063369;28;20479;-51
2022/05/08 01:25:54;;;;;;;9.25;4.85;;;;;;;20.95;55.39;100738.25;5064924;28;20039;-49
2022/05/08 01:28:21;;;;;;;9.98;5.95;;;;;;;20.97;55.07;100722.16;5064168;28;20456;-53
2022/05/08 01:30:49;;;;;;;12.40;6.43;;;;;;;20.97;55.01;100715.03;5064494;28;20044;-54
2022/05/08 01:33:15;;;;;;;7.97;5.07;;;;;;;20.98;54.96;100723.78;5067941;28;20028;-51
2022/05/08 01:35:42;;;;;;;7.95;5.22;;;;;;;20.98;55.13;100729.09;5060811;28;20041;-52
2022/05/08 01:38:09;;;;;;;7.93;5.57;;;;;;;20.96;54.78;100731.94;5063922;28;20174;-52
2022/05/08 01:40:35;;;;;;;9.02;6.07;;;;;;;20.94;55.01;100741.94;5064194;28;20032;-50
2022/05/08 01:43:01;;;;;;;7.80;5.53;;;;;;;20.95;54.90;100753.34;5064636;28;20032;-51
2022/05/08 01:45:27;;;;;;;9.32;5.82;;;;;;;20.96;54.88;100765.56;5059275;28;20063;-52
2022/05/08 01:50:38;;;;;;;9.37;5.30;;;;;;;20.93;55.16;100771.25;5063678;28;20067;-53
2022/05/08 01:53:04;;;;;;;9.20;5.75;;;;;;;20.91;55.10;100763.53;5065064;28;20028;-53
2022/05/08 01:55:30;;;;;;;10.85;5.38;;;;;;;20.92;55.26;100777.59;5062591;28;20033;-50
2022/05/08 01:57:56;;;;;;;11.80;6.65;;;;;;;20.92;55.08;100772.28;5068283;28;20526;-50
2022/05/08 02:00:22;;;;;;;9.50;5.82;;;;;;;20.92;55.12;100778.41;5062146;28;20110;-52
2022/05/08 02:02:48;;;;;;;11.68;5.45;;;;;;;20.91;55.01;100784.72;5067336;28;20492;-49
2022/05/08 02:05:22;;;;;;;11.43;6.10;;;;;;;20.90;54.98;100783.09;5062645;28;20075;-49
2022/05/08 02:07:47;;;;;;;8.07;5.15;;;;;;;20.91;55.11;100783.91;5062693;28;20439;-50
2022/05/08 02:12:48;;;;;;;9.95;5.00;;;;;;;20.87;55.27;100780.84;5055925;22;20288;-50
2022/05/08 02:15:14;;;;;;;10.25;5.82;;;;;;;20.88;55.30;100783.28;5088388;28;20043;-51
2022/05/08 02:17:40;;;;;;;7.50;4.93;;;;;;;20.90;55.21;100779.63;5087614;28;20165;-52
2022/05/08 02:20:08;;;;;;;8.48;5.55;;;;;;;20.91;55.20;100775.94;5087757;28;20123;-51
2022/05/08 02:22:34;;;;;;;9.13;5.35;;;;;;;20.91;54.89;100768.00;5087810;28;20047;-52
2022/05/08 02:25:00;;;;;;;8.73;5.50;;;;;;;20.90;54.96;100774.31;5087777;28;20032;-52
2022/05/08 02:27:25;;;;;;;8.85;4.90;;;;;;;20.89;55.21;100770.84;5087634;28;20032;-52
2022/05/08 02:29:54;;;;;;;8.63;5.20;;;;;;;20.91;54.87;100789.19;5087688;28;20412;-52
2022/05/08 02:32:20;;;;;;;7.65;4.68;;;;;;;20.88;55.38;100772.69;5087236;28;20153;-50
2022/05/08 02:34:45;;;;;;;8.10;4.72;;;;;;;20.88;54.97;100780.63;5087709;28;20134;-53
2022/05/08 02:37:11;;;;;;;7.82;4.38;;;;;;;20.87;55.17;100776.34;5087481;28;20032;-51
2022/05/08 02:39:36;;;;;;;8.25;4.55;;;;;;;20.87;54.99;100773.72;5084300;28;20129;-52
2022/05/08 02:42:03;;;;;;;7.25;4.80;;;;;;;20.86;55.22;100772.06;5067047;28;20035;-51
2022/05/08 02:44:28;;;;;;;7.50;4.35;;;;;;;20.87;55.15;100772.91;5067131;28;20028;-51
2022/05/08 02:46:53;;;;;;;7.03;4.80;;;;;;;20.86;55.06;100766.78;5066905;28;20059;-53
2022/05/08 02:49:19;;;;;;;7.93;4.72;;;;;;;20.85;55.01;100765.16;5066683;28;20025;-53
2022/05/08 02:51:45;;;;;;;8.80;4.70;;;;;;;20.85;55.14;100773.09;5067239;28;20367;-53
2022/05/08 02:54:10;;;;;;;9.70;4.82;;;;;;;20.85;54.85;100775.75;5067234;28;20131;-48
2022/05/08 02:59:20;;;;;;;7.82;4.30;;;;;;;20.83;55.32;100771.66;5066880;28;20145;-51
2022/05/08 03:01:45;;;;;;;6.45;4.50;;;;;;;20.83;55.28;100779.63;5048713;28;20032;-54
2022/05/08 03:04:11;;;;;;;6.60;3.85;;;;;;;20.82;54.97;100770.84;5066736;28;20056;-48
2022/05/08 03:06:38;;;;;;;7.30;3.85;;;;;;;20.83;54.83;100780.44;5071393;28;20151;-53
2022/05/08 03:09:04;;;;;;;6.60;4.03;;;;;;;20.84;54.63;100774.13;5086671;28;20119;-50
2022/05/08 03:11:29;;;;;;;6.28;3.85;;;;;;;20.84;54.88;100770.66;5086761;28;20028;-52
2022/05/08 03:13:59;;;;;;;5.25;3.63;;;;;;;20.84;55.01;100774.13;5086321;28;20098;-53
2022/05/08 03:16:33;;;;;;;4.65;3.47;;;;;;;20.84;54.71;100774.13;5068714;28;20090;-53
2022/05/08 03:18:59;;;;;;;8.05;4.10;;;;;;;20.84;54.87;100768.81;5086898;28;20058;-53
2022/05/08 03:21:24;;;;;;;5.35;3.72;;;;;;;20.85;54.61;100773.09;5086327;28;20471;-52
2022/05/08 03:23:51;;;;;;;5.30;3.90;;;;;;;20.86;54.93;100774.72;5086689;28;20159;-52
2022/05/08 03:26:19;;;;;;;4.75;3.80;;;;;;;20.86;54.56;100777.38;5086245;28;20479;-51
2022/05/08 03:28:45;;;;;;;5.72;3.42;;;;;;;20.86;54.86;100777.38;5086705;28;20498;-49
2022/05/08 03:31:11;;;;;;;4.88;2.95;;;;;;;20.88;54.55;100774.53;5086549;28;20558;-53
2022/05/08 03:33:38;;;;;;;4.50;3.25;;;;;;;20.90;54.47;100774.31;5068418;28;20082;-53
2022/05/08 03:36:05;;;;;;;4.30;2.92;;;;;;;20.88;54.43;100780.63;5086422;28;20024;-51
2022/05/08 03:38:30;;;;;;;4.95;3.08;;;;;;;20.88;54.83;100772.69;5083990;28;20032;-52
2022/05/08 03:40:56;;;;;;;5.22;3.08;;;;;;;20.88;54.81;100767.41;5079733;28;20122;-51
2022/05/08 03:43:23;;;;;;;8.45;3.60;;;;;;;20.87;54.55;100764.94;5086405;28;20382;-54
2022/05/08 03:45:49;;;;;;;6.03;3.47;;;;;;;20.87;54.44;100770.25;5086482;28;20031;-53
2022/05/08 03:48:19;;;;;;;4.90;3.22;;;;;;;20.86;54.68;100766.78;5086440;28;20425;-52
2022/05/08 03:50:44;;;;;;;3.95;3.15;;;;;;;20.85;54.67;100767.00;5086373;28;20409;-48
2022/05/08 03:53:10;;;;;;;4.78;3.10;;;;;;;20.84;54.47;100776.75;5086350;28;20024;-50
2022/05/08 03:55:36;;;;;;;5.47;3.40;;;;;;;20.83;54.50;100764.53;5086077;28;20028;-50
2022/05/08 03:58:02;;;;;;;3.92;3.40;;;;;;;20.84;54.65;100773.31;5086121;28;20016;-51
2022/05/08 04:00:28;;;;;;;4.28;2.95;;;;;;;20.83;54.63;100772.50;5086575;28;20036;-51
2022/05/08 04:02:54;;;;;;;5.45;3.95;;;;;;;20.83;54.50;100767.19;5089881;28;20359;-53
2022/05/08 04:05:20;;;;;;;5.35;3.35;;;;;;;20.83;54.09;100763.72;5090573;28;20036;-50
2022/05/08 04:07:46;;;;;;;4.55;3.45;;;;;;;20.81;54.40;100761.28;5090490;28;20035;-52
2022/05/08 04:10:12;;;;;;;3.95;3.33;;;;;;;20.81;54.10;100763.94;5090148;28;20032;-51
2022/05/08 04:12:39;;;;;;;5.25;3.15;;;;;;;20.81;54.27;100766.56;5089861;28;20044;-54
2022/05/08 04:16:15;;;;;;;5.82;3.38;;;;;;;20.80;54.24;100769.44;5090556;28;20064;-50
2022/05/08 04:17:51;;;;;;;5.68;3.88;;;;;;;20.79;54.48;100766.00;5090043;28;20089;-53
2022/05/08 04:20:17;;;;;;;3.55;3.17;;;;;;;20.78;54.29;100774.97;5090223;28;20024;-51
2022/05/08 04:25:26;;;;;;;4.45;3.45;;;;;;;20.76;54.08;100771.69;5090486;28;20051;-48
2022/05/08 04:27:52;;;;;;;3.55;2.80;;;;;;;20.78;54.15;100779.44;5090214;28;20024;-47
2022/05/08 04:30:17;;;;;;;3.72;3.30;;;;;;;20.78;54.20;100785.56;5090185;28;20032;-49
2022/05/08 04:32:42;;;;;;;3.20;2.30;;;;;;;20.78;54.34;100785.56;5089898;28;20108;-49
2022/05/08 04:35:08;;;;;;;4.38;3.17;;;;;;;20.79;54.07;100792.47;5089669;28;20537;-49
2022/05/08 04:37:34;;;;;;;4.00;3.13;;;;;;;20.79;54.34;100803.06;5089695;28;20124;-51
2022/05/08 04:39:59;;;;;;;4.65;3.40;;;;;;;20.79;54.36;100795.13;5074995;28;20036;-51
2022/05/08 04:42:25;;;;;;;4.57;3.40;;;;;;;20.79;54.42;100794.31;5069413;28;20506;-51
2022/05/08 04:44:51;;;;;;;3.70;2.90;;;;;;;20.80;54.53;100793.25;5069544;28;20108;-53
2022/05/08 04:47:16;;;;;;;3.13;2.53;;;;;;;20.78;54.47;100796.16;5069564;28;20545;-52
2022/05/08 04:49:42;;;;;;;4.80;3.13;;;;;;;20.78;54.34;100798.78;5069163;28;20605;-51
2022/05/08 04:52:07;;;;;;;4.30;2.95;;;;;;;20.78;54.36;100806.72;5069257;28;20024;-50
2022/05/08 04:54:33;;;;;;;6.88;3.47;;;;;;;20.77;54.89;100807.75;5069340;28;20108;-48
2022/05/08 04:57:00;;;;;;;4.38;2.60;;;;;;;20.78;55.16;100795.31;5069704;28;20077;-50
2022/05/08 04:59:26;;;;;;;6.05;2.90;;;;;;;20.78;55.47;100805.91;5069199;28;20503;-50
2022/05/08 05:01:51;;;;;;;7.40;3.50;;;;;;;20.79;55.58;100807.56;5069343;28;20032;-52
2022/05/08 05:04:17;;;;;;;5.65;2.88;;;;;;;20.78;55.43;100806.72;5069120;28;20032;-54
2022/05/08 05:06:43;;;;;;;5.32;3.75;;;;;;;20.77;55.11;100815.69;5077259;28;20495;-50
2022/05/08 05:09:09;;;;;;;5.65;3.00;;;;;;;20.78;54.83;100814.69;5089565;28;20039;-52
2022/05/08 05:11:34;;;;;;;3.72;2.85;;;;;;;20.78;55.06;100814.69;5089756;28;20344;-48
2022/05/08 05:14:00;;;;;;;6.03;3.70;;;;;;;20.78;54.89;100809.38;5088672;28;20040;-54
2022/05/08 05:16:25;;;;;;;3.70;2.65;;;;;;;20.79;54.96;100805.72;5089270;28;20063;-49
2022/05/08 05:18:50;;;;;;;3.55;3.08;;;;;;;20.78;55.11;100806.72;5089240;28;20048;-52
2022/05/08 05:21:16;;;;;;;5.00;3.72;;;;;;;20.79;54.90;100792.47;5089028;28;20406;-51
2022/05/08 05:23:42;;;;;;;5.38;2.88;;;;;;;20.80;55.03;100801.19;5089128;28;20069;-53
2022/05/08 05:26:08;;;;;;;4.55;3.15;;;;;;;20.80;55.13;100802.03;5088822;28;20038;-50
2022/05/08 05:28:33;;;;;;;4.55;3.05;;;;;;;20.80;54.79;100804.66;5088791;28;20020;-50
2022/05/08 05:30:59;;;;;;;5.00;2.67;;;;;;;20.80;54.66;100806.50;5089123;28;20461;-51
2022/05/08 05:33:24;;;;;;;6.32;3.00;;;;;;;20.81;55.06;100802.84;5070322;28;20038;-52
2022/05/08 05:35:50;;;;;;;4.00;2.90;;;;;;;20.80;54.90;100809.97;5088590;28;20032;-51
2022/05/08 05:38:15;;;;;;;5.00;2.92;;;;;;;20.81;54.73;100816.06;5088362;28;20024;-53
2022/05/08 05:40:41;;;;;;;3.33;2.90;;;;;;;20.81;54.65;100816.88;5068233;28;20051;-49
2022/05/08 05:43:06;;;;;;;4.28;2.63;;;;;;;20.81;55.03;100811.59;5068241;28;20020;-53
2022/05/08 05:45:32;;;;;;;3.65;2.70;;;;;;;20.82;55.05;100815.06;5068328;28;20032;-50
2022/05/08 05:47:59;;;;;;;2.92;2.63;;;;;;;20.81;54.82;100819.53;5068401;28;20392;-51
2022/05/08 05:50:25;;;;;;;6.05;3.13;;;;;;;20.81;54.86;100824.84;5068085;28;20521;-51
2022/05/08 05:52:52;;;;;;;2.92;2.13;;;;;;;20.81;54.81;100816.88;5068438;28;20020;-47
2022/05/08 05:55:18;;;;;;;2.80;2.50;;;;;;;20.81;55.13;100816.06;5068423;28;20063;-50
2022/05/08 05:57:44;;;;;;;3.58;2.63;;;;;;;20.80;54.76;100820.56;5068012;28;20539;-48
2022/05/08 06:00:14;;;;;;;3.17;2.88;;;;;;;20.80;54.99;100825.03;5049835;28;20037;-48
2022/05/08 06:02:43;;;;;;;3.42;2.78;;;;;;;20.79;54.68;100824.25;5068036;28;20090;-52
2022/05/08 06:05:10;;;;;;;3.85;2.90;;;;;;;20.79;54.89;100818.13;5068319;28;20432;-54
2022/05/08 06:07:37;;;;;;;3.40;2.30;;;;;;;20.78;54.90;100825.28;5080051;28;20024;-55
2022/05/08 06:10:05;;;;;;;3.83;3.08;;;;;;;20.78;54.90;100825.28;5087997;28;20224;-53
2022/05/08 06:12:31;;;;;;;3.90;2.72;;;;;;;20.78;55.00;100819.16;5087929;28;20048;-53
2022/05/08 06:14:57;;;;;;;5.20;2.85;;;;;;;20.77;54.69;100820.19;5069696;28;20516;-54
2022/05/08 06:17:22;;;;;;;8.15;3.10;;;;;;;20.78;54.54;100824.44;5088258;28;20111;-51
2022/05/08 06:19:48;;;;;;;3.67;3.00;;;;;;;20.76;54.82;100829.94;5087822;28;20032;-49
2022/05/08 06:22:13;;;;;;;3.25;2.80;;;;;;;20.76;54.75;100821.19;5087479;28;20474;-50
2022/05/08 06:24:38;;;;;;;3.05;2.60;;;;;;;20.76;54.58;100835.25;5087270;28;20027;-51
2022/05/08 06:27:05;;;;;;;4.03;2.67;;;;;;;20.76;54.84;100840.53;5087758;28;20437;-53
2022/05/08 06:29:32;;;;;;;3.60;2.30;;;;;;;20.75;54.71;100840.75;5087626;28;20028;-50
2022/05/08 06:31:57;;;;;;;3.30;2.55;;;;;;;20.75;54.86;100838.09;5087680;28;20043;-53
2022/05/08 06:34:23;;;;;;;4.20;2.58;;;;;;;20.74;54.70;100842.56;5087776;28;20032;-48
2022/05/08 06:36:48;;;;;;;4.03;2.50;;;;;;;20.75;54.64;100843.38;5087424;28;20087;-52
2022/05/08 06:39:14;;;;;;;3.80;2.42;;;;;;;20.73;54.93;100833.00;5076213;28;20134;-53
2022/05/08 06:41:40;;;;;;;3.80;2.88;;;;;;;20.73;54.69;100840.94;5085057;28;20058;-51
2022/05/08 06:44:05;;;;;;;3.90;2.65;;;;;;;20.73;54.57;100846.25;5082963;28;20028;-52
2022/05/08 06:46:32;;;;;;;3.13;2.40;;;;;;;20.74;54.65;100847.06;5084590;28;20072;-51
2022/05/08 06:49:00;;;;;;;3.00;2.80;;;;;;;20.74;54.80;100847.06;5085337;28;20035;-52
2022/05/08 06:51:26;;;;;;;3.08;2.85;;;;;;;20.75;54.71;100843.38;5084914;28;20089;-51
2022/05/08 06:53:52;;;;;;;2.75;2.33;;;;;;;20.76;54.84;100851.13;5084566;28;20032;-51
2022/05/08 06:56:17;;;;;;;3.80;2.95;;;;;;;20.75;54.78;100849.50;5085553;28;20127;-52
2022/05/08 07:01:45;;;;;;;3.45;2.83;;;;;;;20.74;54.67;100847.88;5082230;28;20051;-47
2022/05/08 07:04:12;;;;;;;3.47;3.17;;;;;;;20.76;55.23;100847.66;5070592;28;20044;-51
2022/05/08 07:06:38;;;;;;;7.35;3.33;;;;;;;20.87;56.31;100847.84;5081859;28;20028;-49
2022/05/08 07:09:05;;;;;;;7.63;4.68;;;;;;;20.98;56.99;100858.88;5066543;28;20024;-49
2022/05/08 07:11:31;;;;;;;6.88;4.07;;;;;;;21.02;56.59;100858.28;5062562;28;20039;-52
2022/05/08 07:13:57;;;;;;;11.32;6.97;;;;;;;21.02;56.74;100860.09;5085048;28;20058;-50
2022/05/08 07:16:23;;;;;;;5.97;4.70;;;;;;;20.99;56.31;100855.22;5082722;28;20055;-46
2022/05/08 07:18:49;;;;;;;4.80;3.97;;;;;;;20.97;56.24;100862.53;5084911;28;20073;-50
2022/05/08 07:21:15;;;;;;;7.70;2.92;;;;;;;20.95;56.41;100860.09;5084587;28;20032;-46
2022/05/08 07:23:40;;;;;;;6.40;2.83;;;;;;;20.94;56.40;100869.06;5084743;28;20441;-58
2022/05/08 07:26:06;;;;;;;2.60;2.13;;;;;;;20.94;56.54;100863.75;5065954;28;20521;-56
2022/05/08 07:28:32;;;;;;;5.38;3.13;;;;;;;20.94;56.59;100860.28;5087314;28;20032;-52
2022/05/08 07:30:57;;;;;;;4.85;3.22;;;;;;;20.94;56.36;100874.34;5084999;28;20410;-57
2022/05/08 07:33:23;;;;;;;3.17;2.45;;;;;;;20.93;56.46;100872.72;5085867;28;20525;-58
2022/05/08 07:38:32;;;;;;;3.58;2.55;;;;;;;20.94;56.02;100865.59;5084774;28;20047;-52
2022/05/08 07:40:59;;;;;;;3.92;2.45;;;;;;;20.95;56.10;100875.16;5084709;28;20036;-56
2022/05/08 07:43:25;;;;;;;7.43;3.22;;;;;;;20.95;55.93;100873.34;5086023;28;20024;-53
2022/05/08 07:45:51;;;;;;;7.15;3.40;;;;;;;20.95;55.93;100864.56;5083651;28;20111;-59
2022/05/08 07:48:16;;;;;;;9.90;2.97;;;;;;;20.96;56.01;100874.16;5081252;28;20027;-58
2022/05/08 07:50:43;;;;;;;3.95;2.88;;;;;;;20.94;55.86;100874.34;5084469;28;20043;-57
2022/05/08 07:53:08;;;;;;;6.20;3.03;;;;;;;20.95;55.94;100880.47;5084753;28;20020;-61
2022/05/08 07:55:34;;;;;;;7.40;3.13;;;;;;;20.94;55.87;100884.13;5083490;28;20115;-55
2022/05/08 07:58:00;;;;;;;4.85;4.45;;;;;;;20.92;55.32;100894.13;5071050;28;20031;-57
2022/05/08 08:00:26;;;;;;;5.38;4.88;;;;;;;20.91;55.41;100895.13;5083406;28;20032;-59
2022/05/08 08:02:51;;;;;;;5.57;5.18;;;;;;;20.90;55.06;100899.63;5085136;28;20031;-57
2022/05/08 08:05:17;;;;;;;5.85;4.55;;;;;;;20.87;54.85;100895.53;5079961;28;20040;-53
2022/05/08 08:07:42;;;;;;;7.28;5.47;;;;;;;20.87;55.13;100894.72;5085288;28;20020;-48
2022/05/08 08:10:08;;;;;;;5.22;4.53;;;;;;;20.86;55.29;100893.91;5084912;28;20023;-57
2022/05/08 08:12:34;;;;;;;4.85;4.50;;;;;;;20.88;55.27;100901.66;5077359;28;20119;-58
2022/05/08 08:15:00;;;;;;;6.22;4.07;;;;;;;20.87;55.24;100906.13;5080991;28;20059;-50
2022/05/08 08:17:27;;;;;;;5.43;4.93;;;;;;;20.88;55.75;100906.94;5085688;28;20055;-55
2022/05/08 08:19:53;;;;;;;5.78;4.93;;;;;;;20.87;56.13;100905.31;5075457;28;20106;-60
2022/05/08 08:22:19;;;;;;;8.88;4.53;;;;;;;20.88;56.04;100913.06;5076208;28;21023;-59
2022/05/08 08:24:44;;;;;;;8.05;5.18;;;;;;;20.87;56.44;100906.13;5077925;28;20162;-56
2022/05/08 08:27:10;;;;;;;5.55;4.63;;;;;;;20.87;56.09;100916.72;5073962;28;20107;-51
2022/05/08 08:29:36;;;;;;;5.03;4.40;;;;;;;20.90;55.72;100919.97;5086047;28;20016;-47
2022/05/08 08:32:01;;;;;;;5.10;4.40;;;;;;;20.88;55.70;100917.53;5086421;28;20028;-48
2022/05/08 08:34:27;;;;;;;5.20;4.20;;;;;;;20.88;55.54;100918.34;5085417;28;20111;-53
2022/05/08 08:36:53;;;;;;;5.03;4.40;;;;;;;20.88;55.61;100915.69;5080750;28;20097;-48
2022/05/08 08:39:19;;;;;;;6.00;3.88;;;;;;;20.90;55.36;100919.97;5085098;28;20040;-48
2022/05/08 08:41:53;;;;;;;4.25;3.92;;;;;;;20.87;55.69;100922.00;5086044;28;20082;-47
2022/05/08 08:47:44;;;;;;;11.85;4.03;;;;;;;20.85;55.49;100921.41;5022651;28;20041;-51
2022/05/08 08:50:11;;;;;;;4.18;3.78;;;;;;;20.85;55.02;100928.53;5025799;28;20205;-50
2022/05/08 08:52:37;;;;;;;4.30;3.92;;;;;;;20.84;55.06;100927.72;5024538;28;20507;-50
2022/05/08 08:55:06;;;;;;;5.38;4.10;;;;;;;20.85;55.15;100925.88;5026579;28;20040;-51
2022/05/08 08:57:32;;;;;;;3.50;3.20;;;;;;;20.85;55.37;100934.63;5025095;28;20107;-47
2022/05/08 08:59:57;;;;;;;3.67;3.38;;;;;;;20.84;55.29;100927.72;5024605;28;20770;-47
2022/05/08 09:02:23;;;;;;;5.53;3.83;;;;;;;20.85;55.18;100928.53;5025760;28;20033;-50
2022/05/08 09:04:50;;;;;;;3.90;3.60;;;;;;;20.85;55.38;100928.53;5025487;28;20049;-49
2022/05/08 09:07:33;;;;;;;4.13;3.45;;;;;;;20.83;55.00;100930.56;5024318;28;20540;-49
2022/05/08 09:10:16;;;;;;;4.18;3.88;;;;;;;20.83;55.29;100928.72;5024437;28;20037;-48
2022/05/08 09:12:45;;;;;;;3.92;3.63;;;;;;;20.85;55.21;100929.34;5024793;28;20053;-48
2022/05/08 09:15:22;;;;;;;3.88;3.55;;;;;;;20.85;54.95;100926.69;5025166;28;20503;-49
2022/05/08 09:17:50;;;;;;;3.88;3.58;;;;;;;20.86;55.01;100930.16;5038321;28;20063;-48
2022/05/08 09:20:32;;;;;;;5.15;3.42;;;;;;;20.85;54.90;100924.03;5051989;28;20058;-49
2022/05/08 09:23:20;;;;;;;4.32;3.92;;;;;;;20.84;55.08;100927.72;5086039;28;20545;-48
2022/05/08 09:25:59;;;;;;;4.35;3.78;;;;;;;20.85;54.85;100932.00;5088797;28;20137;-47
2022/05/08 09:28:40;;;;;;;4.32;3.58;;;;;;;20.87;55.13;100931.78;5088155;28;20067;-49
2022/05/08 09:31:13;;;;;;;5.60;3.90;;;;;;;20.86;55.12;100925.69;5086014;28;20028;-48
2022/05/08 09:33:51;;;;;;;4.15;3.72;;;;;;;20.87;55.07;100927.31;5070590;28;20024;-47
2022/05/08 09:36:24;;;;;;;4.65;3.47;;;;;;;20.88;55.14;100925.47;5087041;28;20036;-49
2022/05/08 09:39:02;;;;;;;4.38;3.80;;;;;;;20.87;54.84;100927.31;5087955;28;20040;-47
2022/05/08 09:41:31;;;;;;;4.10;3.58;;;;;;;20.87;55.09;100929.97;5088496;28;20066;-50
2022/05/08 09:44:13;;;;;;;3.83;3.53;;;;;;;20.87;54.74;100927.31;5087656;28;20024;-48
2022/05/08 09:46:43;;;;;;;4.82;3.88;;;;;;;20.90;54.75;100927.94;5088283;28;20484;-52
2022/05/08 09:49:11;;;;;;;4.38;3.33;;;;;;;20.91;54.74;100926.91;5088103;28;20035;-47
2022/05/08 09:51:37;;;;;;;3.50;3.22;;;;;;;20.90;55.07;100931.41;5087155;28;20086;-48
2022/05/08 09:54:02;;;;;;;3.42;3.22;;;;;;;20.91;54.65;100932.22;5087107;28;20020;-49
2022/05/08 09:56:28;;;;;;;3.22;2.90;;;;;;;20.90;54.92;100925.28;5088547;28;20543;-48
2022/05/08 09:58:54;;;;;;;3.60;3.30;;;;;;;20.90;54.82;100931.41;5086056;28;20038;-48
2022/05/08 10:01:19;;;;;;;3.38;3.17;;;;;;;20.89;54.75;100924.47;5085220;28;20032;-49
2022/05/08 10:03:47;;;;;;;4.32;2.65;;;;;;;20.88;54.68;100922.84;5085584;28;20229;-48
2022/05/08 10:06:14;;;;;;;3.13;2.88;;;;;;;20.88;54.92;100922.84;5067400;28;20032;-49
2022/05/08 10:08:41;;;;;;;3.00;2.67;;;;;;;20.87;54.73;100924.66;5084576;28;20177;-48
2022/05/08 10:14:04;;;;;;;2.38;2.17;;;;;;;20.87;54.90;100921.19;5087308;28;20087;-50
2022/05/08 10:16:53;;;;;;;2.85;2.65;;;;;;;20.84;54.55;100916.31;5088036;28;20049;-47
2022/05/08 10:19:22;;;;;;;2.42;2.33;;;;;;;20.87;54.61;100915.91;5085757;28;20108;-47
2022/05/08 10:22:03;;;;;;;4.00;2.53;;;;;;;20.86;54.50;100915.09;5086252;28;20032;-48
2022/05/08 10:24:38;;;;;;;2.70;2.60;;;;;;;20.86;54.49;100916.91;5084766;28;20040;-49
2022/05/08 10:27:14;;;;;;;2.83;2.60;;;;;;;20.85;54.53;100917.94;5085360;28;20447;-47
2022/05/08 10:30:06;;;;;;;3.42;3.00;;;;;;;20.86;54.77;100920.38;5087700;28;20786;-47
2022/05/08 10:32:31;;;;;;;3.25;2.50;;;;;;;20.86;54.69;100914.28;5068466;28;20047;-51
2022/05/08 10:35:03;;;;;;;3.50;3.20;;;;;;;20.85;54.69;100907.34;5087840;28;20040;-48
2022/05/08 10:37:29;;;;;;;3.58;3.13;;;;;;;20.85;54.61;100905.50;5086473;28;20034;-47
2022/05/08 10:39:56;;;;;;;3.53;2.67;;;;;;;20.85;54.14;100905.50;5085530;28;20490;-48
2022/05/08 10:42:24;;;;;;;3.53;3.15;;;;;;;20.84;54.29;100906.53;5086516;28;20104;-47
2022/05/08 10:44:51;;;;;;;2.78;2.58;;;;;;;20.85;53.98;100902.03;5086779;28;20126;-50
2022/05/08 10:47:36;;;;;;;2.95;2.63;;;;;;;20.82;54.00;100908.56;5086125;28;20059;-50
2022/05/08 10:50:12;;;;;;;3.08;2.25;;;;;;;20.83;54.08;100896.13;5086383;28;20039;-51
2022/05/08 10:52:45;;;;;;;3.13;2.67;;;;;;;20.82;54.18;100897.97;5086451;28;20487;-50
2022/05/08 10:55:15;;;;;;;2.78;2.38;;;;;;;20.84;53.87;100903.06;5085179;28;20462;-47
2022/05/08 10:57:44;;;;;;;2.88;2.58;;;;;;;20.85;54.18;100884.31;5086178;28;20558;-50
2022/05/08 11:00:12;;;;;;;3.00;2.67;;;;;;;20.85;54.39;100889.63;5083518;28;20158;-47
2022/05/08 11:02:50;;;;;;;2.95;2.75;;;;;;;20.84;54.34;100893.28;5084481;28;20557;-48
2022/05/08 11:05:21;;;;;;;4.03;2.65;;;;;;;20.83;54.40;100889.00;5086131;28;20131;-48
2022/05/08 11:07:58;;;;;;;2.78;2.58;;;;;;;20.82;54.39;100886.56;5084751;28;20055;-48
2022/05/08 11:10:24;;;;;;;2.47;2.28;;;;;;;20.83;54.09;100888.19;5082834;28;20281;-47
2022/05/08 11:13:10;;;;;;;3.15;2.85;;;;;;;20.82;54.17;100889.19;5085711;28;20543;-48
2022/05/08 11:15:46;;;;;;;2.63;2.42;;;;;;;20.80;54.25;100889.41;5072327;28;20458;-47
2022/05/08 11:18:23;;;;;;;2.63;2.00;;;;;;;20.81;53.88;100891.03;5086528;28;20055;-48
2022/05/08 11:21:04;;;;;;;2.15;1.63;;;;;;;20.82;53.78;100887.38;5084749;28;20032;-48
2022/05/08 11:23:32;;;;;;;3.05;2.28;;;;;;;20.83;53.72;100885.53;5085112;28;20043;-46
2022/05/08 11:26:05;;;;;;;2.40;2.20;;;;;;;20.84;53.69;100887.16;5085793;28;20563;-47
2022/05/08 11:28:32;;;;;;;2.05;1.85;;;;;;;20.85;53.90;100889.63;5085378;28;20541;-47
2022/05/08 11:30:59;;;;;;;2.65;2.20;;;;;;;20.87;53.52;100884.94;5084072;28;20386;-48
2022/05/08 11:36:32;;;;;;;5.72;2.10;;;;;;;20.85;53.37;100883.50;5085834;28;20066;-48
2022/05/08 11:39:04;;;;;;;3.28;1.60;;;;;;;20.85;53.29;100881.66;5083890;28;20325;-46
2022/05/08 11:41:32;;;;;;;2.67;2.30;;;;;;;20.87;53.52;100878.81;5086359;28;20081;-47
2022/05/08 11:44:02;;;;;;;2.92;2.08;;;;;;;20.88;53.24;100875.97;5086722;28;20032;-48
2022/05/08 11:46:37;;;;;;;2.60;2.40;;;;;;;20.87;53.26;100882.28;5084810;28;20032;-49
2022/05/08 11:49:19;;;;;;;3.25;1.65;;;;;;;20.87;52.84;100874.34;5083131;28;20395;-59
2022/05/08 11:51:50;;;;;;;2.92;2.20;;;;;;;20.90;52.78;100867.00;5085920;28;20532;-59
2022/05/08 11:54:29;;;;;;;3.58;2.50;;;;;;;20.88;52.13;100870.69;5071619;28;20077;-59